Time;durP1;ratioP1;P1;durP2;ratioP2;P2;SDS_P1;SDS_P2;PMS_P1;PMS_P2;Temp;Humidity;BMP_temperature;BMP_pressure;BME280_temperature;BME280_humidity;BME280_pressure;Samples;Min_cycle;Max_cycle;Signal;HPM_P1;HPM_P2
2021/03/21 00:01:12;;;;;;;5.22;4.60;;;;;;;;;;5093786;28;20205;-61
2021/03/21 00:03:39;;;;;;;4.10;3.70;;;;;;;;;;5093565;28;20201;-60
2021/03/21 00:06:06;;;;;;;4.55;4.15;;;;;;;;;;5093360;28;20216;-60
2021/03/21 00:08:34;;;;;;;5.20;4.72;;;;;;;;;;5093457;28;20220;-60
2021/03/21 00:11:01;;;;;;;4.40;4.00;;;;;;;;;;5093359;28;20746;-59
2021/03/21 00:13:29;;;;;;;4.88;4.18;;;;;;;;;;5094047;28;20268;-61
2021/03/21 00:15:56;;;;;;;9.15;4.60;;;;;;;;;;5105913;28;20204;-62
2021/03/21 00:18:25;;;;;;;4.22;3.83;;;;;;;;;;5094861;28;20271;-60
2021/03/21 00:20:52;;;;;;;3.70;3.40;;;;;;;;;;5094755;28;20314;-61
2021/03/21 00:23:21;;;;;;;3.60;3.30;;;;;;;;;;5095087;28;20667;-61
2021/03/21 00:25:47;;;;;;;4.63;4.15;;;;;;;;;;5098142;28;20199;-61
2021/03/21 00:28:23;;;;;;;4.28;3.70;;;;;;;;;;5097344;28;20722;-60
2021/03/21 00:30:50;;;;;;;4.20;3.90;;;;;;;;;;5097356;28;20648;-58
2021/03/21 00:33:19;;;;;;;4.22;3.88;;;;;;;;;;5097478;28;20229;-60
2021/03/21 00:35:46;;;;;;;6.07;4.07;;;;;;;;;;5097533;28;20276;-61
2021/03/21 00:38:17;;;;;;;4.30;3.90;;;;;;;;;;5097125;28;20203;-61
2021/03/21 00:40:44;;;;;;;4.63;4.03;;;;;;;;;;5097372;28;20189;-60
2021/03/21 00:43:11;;;;;;;4.43;3.85;;;;;;;;;;5097385;28;20568;-60
2021/03/21 00:45:38;;;;;;;5.10;3.75;;;;;;;;;;5096931;28;20704;-60
2021/03/21 00:48:10;;;;;;;4.80;4.40;;;;;;;;;;5098451;28;20680;-61
2021/03/21 00:50:37;;;;;;;4.63;3.88;;;;;;;;;;5113645;28;20237;-61
2021/03/21 00:53:04;;;;;;;5.07;4.50;;;;;;;;;;5104388;28;20547;-61
2021/03/21 00:55:31;;;;;;;5.85;4.18;;;;;;;;;;5099131;28;20220;-60
2021/03/21 00:57:58;;;;;;;5.40;4.10;;;;;;;;;;5097868;28;20192;-60
2021/03/21 01:00:27;;;;;;;4.30;3.90;;;;;;;;;;5097481;28;20222;-60
2021/03/21 01:02:54;;;;;;;4.28;3.88;;;;;;;;;;5098464;28;20205;-61
2021/03/21 01:05:21;;;;;;;4.90;4.40;;;;;;;;;;5098635;28;20705;-61
2021/03/21 01:07:49;;;;;;;4.47;4.07;;;;;;;;;;5097475;28;20611;-61
2021/03/21 01:10:17;;;;;;;4.80;4.20;;;;;;;;;;5098024;28;20577;-60
2021/03/21 01:12:44;;;;;;;4.53;4.13;;;;;;;;;;5097631;28;20559;-62
2021/03/21 01:15:11;;;;;;;4.78;4.30;;;;;;;;;;5097163;28;20220;-61
2021/03/21 01:17:38;;;;;;;4.30;3.90;;;;;;;;;;5097223;28;20546;-61
2021/03/21 01:20:05;;;;;;;5.65;4.85;;;;;;;;;;5097326;28;20660;-60
2021/03/21 01:22:32;;;;;;;5.40;4.90;;;;;;;;;;5097420;28;20290;-61
2021/03/21 01:24:59;;;;;;;5.28;4.78;;;;;;;;;;5097357;28;20583;-61
2021/03/21 01:27:26;;;;;;;7.68;5.55;;;;;;;;;;5097081;28;20200;-61
2021/03/21 01:29:53;;;;;;;5.95;5.35;;;;;;;;;;5099718;28;20300;-61
2021/03/21 01:32:20;;;;;;;5.40;4.90;;;;;;;;;;5096427;28;20721;-62
2021/03/21 01:34:46;;;;;;;6.50;5.00;;;;;;;;;;5095294;28;20227;-62
2021/03/21 01:37:13;;;;;;;7.43;5.65;;;;;;;;;;5095974;28;20197;-61
2021/03/21 01:39:40;;;;;;;5.90;5.30;;;;;;;;;;5096085;28;20223;-61
2021/03/21 01:42:09;;;;;;;6.57;5.50;;;;;;;;;;5096160;28;20201;-61
2021/03/21 01:44:36;;;;;;;5.55;5.05;;;;;;;;;;5095916;28;20734;-60
2021/03/21 01:47:21;;;;;;;5.68;5.13;;;;;;;;;;5096122;28;20201;-62
2021/03/21 01:49:49;;;;;;;7.22;6.22;;;;;;;;;;5095993;28;20212;-61
2021/03/21 01:52:24;;;;;;;7.55;6.03;;;;;;;;;;5095865;28;20204;-60
2021/03/21 01:54:50;;;;;;;6.93;6.18;;;;;;;;;;5095605;28;20729;-60
2021/03/21 01:57:17;;;;;;;5.95;5.35;;;;;;;;;;5096082;28;20204;-61
2021/03/21 01:59:45;;;;;;;6.18;5.57;;;;;;;;;;5095838;28;20668;-60
2021/03/21 02:02:12;;;;;;;6.57;5.47;;;;;;;;;;5096204;28;20227;-61
2021/03/21 02:04:38;;;;;;;5.40;4.70;;;;;;;;;;5095990;28;20289;-62
2021/03/21 02:07:09;;;;;;;6.10;5.50;;;;;;;;;;5095642;28;20212;-61
2021/03/21 02:09:41;;;;;;;6.10;4.97;;;;;;;;;;5100825;28;20204;-61
2021/03/21 02:12:16;;;;;;;5.55;4.75;;;;;;;;;;5103615;28;20188;-61
2021/03/21 02:14:48;;;;;;;6.88;5.80;;;;;;;;;;5104254;28;20219;-61
2021/03/21 02:17:18;;;;;;;5.85;5.13;;;;;;;;;;5105818;28;20196;-61
2021/03/21 02:20:09;;;;;;;5.90;5.25;;;;;;;;;;5100313;28;20192;-60
2021/03/21 02:22:37;;;;;;;6.45;5.03;;;;;;;;;;5040403;28;20209;-62
2021/03/21 02:25:11;;;;;;;5.80;5.20;;;;;;;;;;5097727;28;20224;-61
2021/03/21 02:27:55;;;;;;;5.55;5.03;;;;;;;;;;5097019;28;20196;-60
2021/03/21 02:30:25;;;;;;;6.93;6.32;;;;;;;;;;5085032;28;20200;-61
2021/03/21 02:32:55;;;;;;;6.00;5.40;;;;;;;;;;5095209;28;20577;-61
2021/03/21 02:35:25;;;;;;;5.18;4.60;;;;;;;;;;5094976;28;20216;-61
2021/03/21 02:37:57;;;;;;;6.10;5.50;;;;;;;;;;5095000;28;20553;-61
2021/03/21 02:40:28;;;;;;;5.40;4.90;;;;;;;;;;5094643;28;20185;-60
2021/03/21 02:42:58;;;;;;;6.40;5.80;;;;;;;;;;5094503;28;20187;-61
2021/03/21 02:45:28;;;;;;;5.88;4.72;;;;;;;;;;5094381;28;20614;-60
2021/03/21 02:47:57;;;;;;;6.65;5.97;;;;;;;;;;5093444;28;20204;-61
2021/03/21 02:50:28;;;;;;;6.70;5.90;;;;;;;;;;5094428;28;20215;-62
2021/03/21 02:52:58;;;;;;;7.60;6.72;;;;;;;;;;5094640;28;20662;-61
2021/03/21 02:55:26;;;;;;;5.90;5.30;;;;;;;;;;5094818;28;20224;-61
2021/03/21 02:57:56;;;;;;;6.60;6.00;;;;;;;;;;5094330;28;20227;-61
2021/03/21 03:00:26;;;;;;;6.85;5.85;;;;;;;;;;5094655;28;20253;-60
2021/03/21 03:02:56;;;;;;;5.93;4.95;;;;;;;;;;5094200;28;20738;-61
2021/03/21 03:05:25;;;;;;;7.15;6.40;;;;;;;;;;5094183;28;20716;-61
2021/03/21 03:07:54;;;;;;;7.20;6.53;;;;;;;;;;5093920;28;20699;-61
2021/03/21 03:10:23;;;;;;;7.72;6.63;;;;;;;;;;5094446;28;20196;-62
2021/03/21 03:12:53;;;;;;;11.30;7.03;;;;;;;;;;5094242;28;20200;-62
2021/03/21 03:15:20;;;;;;;8.52;7.03;;;;;;;;;;5093931;28;20310;-61
2021/03/21 03:17:53;;;;;;;8.38;7.57;;;;;;;;;;5094179;28;20232;-61
2021/03/21 03:20:25;;;;;;;8.00;7.05;;;;;;;;;;5093930;28;20181;-61
2021/03/21 03:22:53;;;;;;;8.10;6.53;;;;;;;;;;5094771;28;20218;-62
2021/03/21 03:25:23;;;;;;;7.05;6.00;;;;;;;;;;5093699;28;20226;-62
2021/03/21 03:27:56;;;;;;;7.70;6.90;;;;;;;;;;5094186;28;20510;-62
2021/03/21 03:30:23;;;;;;;8.60;7.30;;;;;;;;;;5093839;28;20226;-62
2021/03/21 03:32:50;;;;;;;9.18;7.72;;;;;;;;;;5093845;28;20729;-62
2021/03/21 03:35:18;;;;;;;8.07;6.82;;;;;;;;;;5094041;28;20601;-62
2021/03/21 03:37:46;;;;;;;8.70;7.80;;;;;;;;;;5094009;28;20200;-62
2021/03/21 03:40:14;;;;;;;8.77;7.20;;;;;;;;;;5094091;28;20204;-62
2021/03/21 03:42:44;;;;;;;9.88;7.47;;;;;;;;;;5094007;28;20577;-60
2021/03/21 03:45:14;;;;;;;9.13;6.55;;;;;;;;;;5095985;28;20224;-63
2021/03/21 03:47:47;;;;;;;8.82;7.68;;;;;;;;;;5095473;28;20201;-62
2021/03/21 03:50:19;;;;;;;9.55;7.70;;;;;;;;;;5095815;28;20181;-62
2021/03/21 03:52:55;;;;;;;7.50;6.70;;;;;;;;;;5113064;28;20184;-62
2021/03/21 03:55:24;;;;;;;8.68;7.78;;;;;;;;;;5103599;28;20219;-62
2021/03/21 03:57:53;;;;;;;8.25;7.00;;;;;;;;;;5094091;28;20200;-62
2021/03/21 04:00:26;;;;;;;9.90;6.47;;;;;;;;;;5100525;28;20196;-63
2021/03/21 04:02:58;;;;;;;8.10;6.85;;;;;;;;;;5104375;28;20243;-62
2021/03/21 04:07:58;;;;;;;7.43;6.55;;;;;;;;;;5073242;28;20601;-63
2021/03/21 04:10:29;;;;;;;8.30;6.82;;;;;;;;;;5071587;28;20250;-63
2021/03/21 04:13:02;;;;;;;10.15;8.00;;;;;;;;;;5070923;28;20191;-62
2021/03/21 04:15:31;;;;;;;7.28;5.60;;;;;;;;;;5070754;28;20591;-62
2021/03/21 04:18:00;;;;;;;8.45;6.45;;;;;;;;;;5070450;28;20568;-62
2021/03/21 04:20:31;;;;;;;8.23;6.82;;;;;;;;;;5070591;28;20263;-62
2021/03/21 04:23:00;;;;;;;6.93;6.22;;;;;;;;;;5070929;28;20182;-62
2021/03/21 04:25:29;;;;;;;6.22;5.63;;;;;;;;;;5070595;28;20224;-62
2021/03/21 04:27:59;;;;;;;7.57;6.55;;;;;;;;;;5070526;28;20201;-62
2021/03/21 04:30:28;;;;;;;6.65;5.03;;;;;;;;;;5070601;28;20192;-62
2021/03/21 04:32:55;;;;;;;6.65;5.57;;;;;;;;;;5070587;28;20201;-62
2021/03/21 04:35:24;;;;;;;8.55;6.40;;;;;;;;;;5070243;28;20575;-61
2021/03/21 04:37:54;;;;;;;6.68;5.53;;;;;;;;;;5070223;28;20591;-62
2021/03/21 04:40:23;;;;;;;6.57;5.75;;;;;;;;;;5070208;28;20217;-62
2021/03/21 04:42:53;;;;;;;7.07;5.78;;;;;;;;;;5069952;28;20746;-61
2021/03/21 04:45:24;;;;;;;6.55;5.85;;;;;;;;;;5069759;28;20636;-62
2021/03/21 04:47:55;;;;;;;6.85;5.53;;;;;;;;;;5070031;28;20221;-63
2021/03/21 04:50:22;;;;;;;7.30;5.00;;;;;;;;;;5071378;28;20201;-62
2021/03/21 04:52:49;;;;;;;7.40;5.38;;;;;;;;;;5073098;28;20198;-61
2021/03/21 04:55:25;;;;;;;9.80;5.32;;;;;;;;;;5074039;28;20221;-62
2021/03/21 04:57:56;;;;;;;5.60;5.00;;;;;;;;;;5074607;28;20215;-61
2021/03/21 05:00:26;;;;;;;5.95;5.20;;;;;;;;;;5074506;28;20185;-62
2021/03/21 05:02:55;;;;;;;5.30;4.38;;;;;;;;;;5074686;28;20205;-61
2021/03/21 05:05:26;;;;;;;6.15;4.50;;;;;;;;;;5073075;28;20291;-61
2021/03/21 05:07:54;;;;;;;4.30;3.90;;;;;;;;;;5072128;28;20205;-62
2021/03/21 05:10:25;;;;;;;4.60;3.83;;;;;;;;;;5072324;28;20215;-61
2021/03/21 05:12:56;;;;;;;4.38;3.58;;;;;;;;;;5072959;28;20190;-62
2021/03/21 05:15:25;;;;;;;4.45;3.88;;;;;;;;;;5070120;28;20657;-62
2021/03/21 05:17:58;;;;;;;5.40;4.38;;;;;;;;;;5064343;28;20194;-62
2021/03/21 05:20:31;;;;;;;5.32;4.55;;;;;;;;;;5056460;28;20195;-62
2021/03/21 05:23:02;;;;;;;5.45;3.58;;;;;;;;;;5056144;28;20686;-62
2021/03/21 05:25:31;;;;;;;4.15;3.75;;;;;;;;;;5056434;28;20594;-62
2021/03/21 05:28:03;;;;;;;3.92;3.53;;;;;;;;;;5056534;28;20198;-62
2021/03/21 05:30:31;;;;;;;4.55;3.70;;;;;;;;;;5056241;28;20182;-62
2021/03/21 05:32:58;;;;;;;3.85;2.95;;;;;;;;;;5056001;28;20676;-62
2021/03/21 05:35:27;;;;;;;4.82;3.28;;;;;;;;;;5056377;28;20315;-63
2021/03/21 05:37:57;;;;;;;3.80;3.22;;;;;;;;;;5056398;28;20202;-62
2021/03/21 05:40:38;;;;;;;4.70;3.85;;;;;;;;;;5056504;28;20198;-61
2021/03/21 05:43:27;;;;;;;7.38;3.35;;;;;;;;;;5043740;28;20618;-61
2021/03/21 05:46:00;;;;;;;3.80;3.40;;;;;;;;;;5056176;28;20217;-62
2021/03/21 05:48:44;;;;;;;4.40;3.35;;;;;;;;;;5056159;28;20187;-62
2021/03/21 05:51:24;;;;;;;3.97;3.00;;;;;;;;;;5025474;28;20261;-62
2021/03/21 05:54:12;;;;;;;5.05;3.17;;;;;;;;;;5055701;28;20228;-62
2021/03/21 05:56:57;;;;;;;4.22;3.55;;;;;;;;;;5056665;28;20183;-62
2021/03/21 05:59:46;;;;;;;4.50;2.60;;;;;;;;;;5055892;28;20548;-63
2021/03/21 06:02:18;;;;;;;4.05;2.92;;;;;;;;;;5056131;28;20187;-62
2021/03/21 06:05:15;;;;;;;4.65;3.25;;;;;;;;;;5057018;28;20229;-62
2021/03/21 06:07:59;;;;;;;6.45;3.70;;;;;;;;;;5056425;28;20222;-62
2021/03/21 06:10:39;;;;;;;4.00;2.72;;;;;;;;;;5056015;28;20213;-62
2021/03/21 06:13:12;;;;;;;4.18;3.05;;;;;;;;;;5056653;28;20190;-62
2021/03/21 06:15:50;;;;;;;5.13;3.45;;;;;;;;;;5056616;28;20323;-62
2021/03/21 06:18:35;;;;;;;5.63;3.53;;;;;;;;;;5057198;28;20250;-62
2021/03/21 06:21:19;;;;;;;6.60;3.03;;;;;;;;;;5046424;28;20201;-63
2021/03/21 06:23:54;;;;;;;6.72;3.90;;;;;;;;;;5046098;28;20238;-62
2021/03/21 06:26:25;;;;;;;5.63;3.80;;;;;;;;;;5057167;28;20204;-61
2021/03/21 06:29:09;;;;;;;5.53;3.85;;;;;;;;;;5055558;28;20197;-62
2021/03/21 06:31:53;;;;;;;6.50;4.15;;;;;;;;;;5055735;28;20190;-62
2021/03/21 06:34:27;;;;;;;3.95;3.00;;;;;;;;;;5055079;28;20222;-62
2021/03/21 06:36:58;;;;;;;5.63;4.18;;;;;;;;;;5055404;28;20194;-61
2021/03/21 06:39:39;;;;;;;7.07;3.72;;;;;;;;;;5055085;28;20194;-63
2021/03/21 06:42:24;;;;;;;10.23;3.78;;;;;;;;;;5057291;28;20183;-61
2021/03/21 06:45:08;;;;;;;4.72;3.45;;;;;;;;;;5055942;28;20274;-63
2021/03/21 06:47:52;;;;;;;7.97;3.90;;;;;;;;;;5054886;28;20233;-63
2021/03/21 06:50:27;;;;;;;5.05;2.92;;;;;;;;;;5054599;28;20570;-61
2021/03/21 06:52:58;;;;;;;6.22;3.20;;;;;;;;;;5054735;28;20584;-62
2021/03/21 06:55:32;;;;;;;6.03;3.10;;;;;;;;;;5054679;28;20284;-62
2021/03/21 06:58:14;;;;;;;6.20;3.42;;;;;;;;;;5055624;28;20183;-62
2021/03/21 07:00:54;;;;;;;9.98;3.55;;;;;;;;;;5064033;28;20644;-63
2021/03/21 07:03:44;;;;;;;6.10;3.10;;;;;;;;;;5060113;28;20193;-63
2021/03/21 07:06:44;;;;;;;10.35;3.20;;;;;;;;;;5054800;28;20221;-63
2021/03/21 07:09:39;;;;;;;8.48;3.55;;;;;;;;;;5054763;28;20190;-63
2021/03/21 07:12:20;;;;;;;11.45;3.67;;;;;;;;;;5054220;28;20195;-62
2021/03/21 07:15:10;;;;;;;12.60;3.17;;;;;;;;;;5056884;28;20232;-62
2021/03/21 07:18:04;;;;;;;10.05;3.70;;;;;;;;;;5054765;28;20667;-62
2021/03/21 07:20:42;;;;;;;11.07;3.38;;;;;;;;;;5054191;28;20188;-63
2021/03/21 07:23:34;;;;;;;12.65;3.33;;;;;;;;;;5055086;28;20191;-62
2021/03/21 07:26:16;;;;;;;12.25;3.50;;;;;;;;;;5054344;28;20192;-62
2021/03/21 07:29:07;;;;;;;16.08;4.30;;;;;;;;;;5054565;28;20187;-61
2021/03/21 07:31:44;;;;;;;16.92;3.38;;;;;;;;;;5039020;28;20204;-62
2021/03/21 07:34:23;;;;;;;14.30;3.58;;;;;;;;;;5054270;28;20305;-62
2021/03/21 07:36:56;;;;;;;14.20;3.45;;;;;;;;;;5054513;28;20187;-61
2021/03/21 07:39:34;;;;;;;13.82;4.65;;;;;;;;;;5053957;28;20190;-61
2021/03/21 07:42:18;;;;;;;12.05;4.13;;;;;;;;;;5053949;28;20647;-61
2021/03/21 07:45:00;;;;;;;14.43;3.55;;;;;;;;;;5053630;28;20224;-62
2021/03/21 07:47:47;;;;;;;14.35;4.00;;;;;;;;;;5040808;28;20215;-62
2021/03/21 07:50:23;;;;;;;15.20;3.90;;;;;;;;;;5049421;28;20207;-62
2021/03/21 07:52:53;;;;;;;13.20;3.90;;;;;;;;;;5053534;28;20184;-61
2021/03/21 07:55:22;;;;;;;13.23;3.63;;;;;;;;;;5053688;28;20225;-63
2021/03/21 07:57:56;;;;;;;12.93;3.03;;;;;;;;;;5053611;28;20575;-61
2021/03/21 08:00:22;;;;;;;11.70;3.88;;;;;;;;;;5053760;28;20205;-62
2021/03/21 08:02:50;;;;;;;27.38;4.55;;;;;;;;;;5053684;28;20694;-61
2021/03/21 08:05:19;;;;;;;11.77;4.45;;;;;;;;;;5054093;28;20227;-63
2021/03/21 08:07:48;;;;;;;11.57;3.50;;;;;;;;;;5053562;28;20233;-62
2021/03/21 08:10:20;;;;;;;18.10;4.90;;;;;;;;;;5053837;28;20211;-62
2021/03/21 08:12:51;;;;;;;19.38;4.50;;;;;;;;;;5053370;28;20217;-62
2021/03/21 08:15:19;;;;;;;20.63;5.05;;;;;;;;;;5053933;28;20227;-61
2021/03/21 08:17:49;;;;;;;15.82;4.40;;;;;;;;;;5054390;28;20627;-62
2021/03/21 08:20:18;;;;;;;17.95;5.07;;;;;;;;;;5054981;28;20202;-63
2021/03/21 08:22:45;;;;;;;14.68;4.43;;;;;;;;;;5054935;28;20207;-63
2021/03/21 08:25:21;;;;;;;22.95;4.82;;;;;;;;;;5055158;28;20230;-63
2021/03/21 08:27:48;;;;;;;21.10;6.95;;;;;;;;;;5057286;28;20231;-62
2021/03/21 08:30:16;;;;;;;15.20;4.60;;;;;;;;;;5065912;28;20300;-62
2021/03/21 08:32:54;;;;;;;20.40;6.75;;;;;;;;;;5060976;28;20680;-63
2021/03/21 08:35:22;;;;;;;21.33;4.53;;;;;;;;;;5066607;28;20234;-62
2021/03/21 08:37:50;;;;;;;22.45;5.57;;;;;;;;;;5065081;28;20195;-62
2021/03/21 08:40:34;;;;;;;19.10;5.35;;;;;;;;;;5067464;28;20212;-61
2021/03/21 08:43:13;;;;;;;19.58;4.32;;;;;;;;;;5062068;28;20191;-63
2021/03/21 08:45:42;;;;;;;21.50;4.50;;;;;;;;;;5065327;28;20277;-62
2021/03/21 08:48:20;;;;;;;16.90;4.45;;;;;;;;;;5062550;28;20621;-63
2021/03/21 08:50:48;;;;;;;19.80;4.88;;;;;;;;;;5061859;28;20216;-61
2021/03/21 08:53:29;;;;;;;18.15;5.60;;;;;;;;;;5061208;28;20216;-61
2021/03/21 08:56:19;;;;;;;17.08;5.10;;;;;;;;;;5063035;28;20202;-61
2021/03/21 08:58:47;;;;;;;21.08;5.35;;;;;;;;;;5061150;28;20244;-62
2021/03/21 09:01:16;;;;;;;16.17;3.97;;;;;;;;;;5060266;28;20203;-61
2021/03/21 09:03:44;;;;;;;17.45;4.43;;;;;;;;;;5058709;28;20227;-61
2021/03/21 09:06:14;;;;;;;16.55;4.53;;;;;;;;;;5057866;28;20266;-61
2021/03/21 09:08:40;;;;;;;22.92;5.05;;;;;;;;;;5058073;28;20230;-61
2021/03/21 09:11:07;;;;;;;25.67;6.60;;;;;;;;;;5057106;28;20207;-61
2021/03/21 09:13:35;;;;;;;19.45;5.28;;;;;;;;;;5058097;28;20216;-61
2021/03/21 09:16:04;;;;;;;13.65;5.55;;;;;;;;;;5057645;28;20289;-62
2021/03/21 09:18:32;;;;;;;13.35;4.75;;;;;;;;;;5056740;28;20204;-61
2021/03/21 09:21:01;;;;;;;24.80;6.40;;;;;;;;;;5057178;28;20204;-60
2021/03/21 09:23:36;;;;;;;18.48;5.70;;;;;;;;;;5057246;28;20274;-58
2021/03/21 09:26:05;;;;;;;22.38;6.22;;;;;;;;;;5057622;28;20191;-61
2021/03/21 09:28:33;;;;;;;24.40;5.93;;;;;;;;;;5056946;28;20208;-61
2021/03/21 09:31:01;;;;;;;16.65;4.72;;;;;;;;;;5056122;28;20211;-61
2021/03/21 09:33:32;;;;;;;27.02;7.50;;;;;;;;;;5056561;28;20593;-61
2021/03/21 09:36:01;;;;;;;30.40;6.32;;;;;;;;;;5056403;28;20192;-60
2021/03/21 09:38:29;;;;;;;22.58;4.88;;;;;;;;;;5056010;28;20211;-60
2021/03/21 09:40:57;;;;;;;19.70;4.32;;;;;;;;;;5056199;28;20583;-60
2021/03/21 09:43:27;;;;;;;30.67;6.40;;;;;;;;;;5057095;28;20339;-61
2021/03/21 09:45:55;;;;;;;19.00;4.80;;;;;;;;;;5056466;28;20211;-62
2021/03/21 09:48:26;;;;;;;24.23;4.65;;;;;;;;;;5055504;28;20216;-61
2021/03/21 09:51:00;;;;;;;22.73;5.63;;;;;;;;;;5055655;28;20189;-62
2021/03/21 09:53:48;;;;;;;18.92;6.85;;;;;;;;;;5055451;28;20193;-61
2021/03/21 09:56:19;;;;;;;20.80;5.28;;;;;;;;;;5055764;28;20208;-60
2021/03/21 09:58:50;;;;;;;20.25;5.75;;;;;;;;;;5056535;28;20200;-60
2021/03/21 10:01:21;;;;;;;17.25;5.20;;;;;;;;;;5056184;28;20192;-62
2021/03/21 10:03:51;;;;;;;23.25;5.78;;;;;;;;;;5055588;28;20244;-61
2021/03/21 10:06:20;;;;;;;24.55;5.90;;;;;;;;;;5055154;28;20278;-61
2021/03/21 10:08:57;;;;;;;25.60;6.18;;;;;;;;;;5056783;28;20541;-62
2021/03/21 10:11:28;;;;;;;30.42;5.82;;;;;;;;;;5055936;28;20189;-61
2021/03/21 10:13:55;;;;;;;19.27;5.32;;;;;;;;;;5062904;28;20231;-61
2021/03/21 10:16:33;;;;;;;23.63;5.65;;;;;;;;;;5071163;28;20209;-61
2021/03/21 10:19:00;;;;;;;19.00;6.00;;;;;;;;;;5060249;28;20197;-62
2021/03/21 10:21:35;;;;;;;23.40;5.35;;;;;;;;;;5055673;28;20673;-61
2021/03/21 10:24:18;;;;;;;26.92;6.57;;;;;;;;;;5055669;28;20226;-60
2021/03/21 10:27:03;;;;;;;22.60;6.80;;;;;;;;;;5055044;28;20685;-61
2021/03/21 10:29:47;;;;;;;22.05;6.00;;;;;;;;;;5058163;28;20211;-61
2021/03/21 10:32:22;;;;;;;18.92;4.32;;;;;;;;;;5055827;28;20206;-61
2021/03/21 10:34:49;;;;;;;27.05;5.50;;;;;;;;;;5055956;28;20271;-61
2021/03/21 10:37:37;;;;;;;24.58;7.72;;;;;;;;;;5055311;28;20212;-60
2021/03/21 10:40:06;;;;;;;24.38;5.95;;;;;;;;;;5050061;28;20206;-61
2021/03/21 10:42:41;;;;;;;21.83;5.50;;;;;;;;;;5055057;28;20668;-62
2021/03/21 10:45:09;;;;;;;22.30;4.90;;;;;;;;;;5055042;28;20271;-62
2021/03/21 10:47:41;;;;;;;18.25;5.07;;;;;;;;;;5054901;28;20712;-61
2021/03/21 10:50:10;;;;;;;17.92;5.65;;;;;;;;;;5054744;28;20212;-62
2021/03/21 10:52:38;;;;;;;22.77;5.47;;;;;;;;;;5054420;28;20670;-61
2021/03/21 10:55:27;;;;;;;22.60;5.18;;;;;;;;;;5054543;28;20268;-62
2021/03/21 10:58:00;;;;;;;20.38;5.32;;;;;;;;;;5054653;28;20182;-60
2021/03/21 11:00:29;;;;;;;24.58;6.03;;;;;;;;;;5054504;28;20262;-61
2021/03/21 11:03:10;;;;;;;16.42;5.25;;;;;;;;;;5054264;28;20672;-61
2021/03/21 11:05:39;;;;;;;19.55;5.55;;;;;;;;;;5054094;28;20783;-61
2021/03/21 11:08:08;;;;;;;20.23;4.68;;;;;;;;;;5054188;28;20579;-62
2021/03/21 11:10:37;;;;;;;22.80;5.85;;;;;;;;;;5054390;28;20288;-61
2021/03/21 11:13:04;;;;;;;19.98;5.80;;;;;;;;;;5054789;28;20205;-61
2021/03/21 11:15:34;;;;;;;22.67;6.53;;;;;;;;;;5054340;28;20239;-61
2021/03/21 11:18:01;;;;;;;17.63;4.97;;;;;;;;;;5055229;28;20259;-61
2021/03/21 11:20:29;;;;;;;27.08;6.50;;;;;;;;;;5057027;28;20280;-61
2021/03/21 11:22:57;;;;;;;25.77;6.00;;;;;;;;;;5057554;28;20578;-61
2021/03/21 11:25:31;;;;;;;20.40;5.25;;;;;;;;;;5056492;28;20275;-61
2021/03/21 11:27:58;;;;;;;24.08;5.68;;;;;;;;;;5055258;28;20221;-61
2021/03/21 11:30:29;;;;;;;25.15;5.95;;;;;;;;;;5055413;28;20281;-61
2021/03/21 11:32:57;;;;;;;15.88;4.78;;;;;;;;;;5055332;28;20607;-61
2021/03/21 11:35:25;;;;;;;17.77;4.68;;;;;;;;;;5054258;28;20225;-61
2021/03/21 11:37:54;;;;;;;18.33;4.97;;;;;;;;;;5054812;28;20201;-62
2021/03/21 11:40:23;;;;;;;21.13;5.80;;;;;;;;;;5053977;28;20205;-61
2021/03/21 11:42:50;;;;;;;20.00;4.97;;;;;;;;;;5053902;28;20607;-61
2021/03/21 11:45:23;;;;;;;23.38;5.50;;;;;;;;;;5054302;28;20221;-61
2021/03/21 11:47:51;;;;;;;23.25;6.15;;;;;;;;;;5053909;28;20214;-61
2021/03/21 11:50:20;;;;;;;22.90;5.20;;;;;;;;;;5053796;28;20256;-61
2021/03/21 11:52:46;;;;;;;20.92;5.93;;;;;;;;;;5053639;28;20204;-62
2021/03/21 11:55:16;;;;;;;32.97;6.28;;;;;;;;;;5054159;28;20225;-61
2021/03/21 11:57:49;;;;;;;20.90;6.60;;;;;;;;;;5053750;28;20205;-60
2021/03/21 12:00:20;;;;;;;21.48;5.30;;;;;;;;;;5053636;28;20190;-60
2021/03/21 12:02:57;;;;;;;17.70;5.32;;;;;;;;;;5053421;28;20240;-61
2021/03/21 12:05:26;;;;;;;34.75;10.30;;;;;;;;;;5053241;28;20256;-62
2021/03/21 12:07:52;;;;;;;24.05;6.22;;;;;;;;;;5053656;28;20589;-61
2021/03/21 12:10:30;;;;;;;26.80;5.32;;;;;;;;;;5053571;28;20620;-61
2021/03/21 12:12:57;;;;;;;21.20;6.40;;;;;;;;;;5053278;28;20244;-61
2021/03/21 12:15:38;;;;;;;18.80;5.75;;;;;;;;;;5053503;28;20282;-61
2021/03/21 12:18:07;;;;;;;24.23;5.13;;;;;;;;;;5051097;28;20773;-60
2021/03/21 12:20:42;;;;;;;22.98;5.57;;;;;;;;;;5053198;28;20303;-62
2021/03/21 12:23:40;;;;;;;17.08;4.82;;;;;;;;;;5053247;28;20186;-62
2021/03/21 12:26:12;;;;;;;22.70;5.50;;;;;;;;;;5053550;28;20199;-61
2021/03/21 12:28:39;;;;;;;18.48;4.90;;;;;;;;;;5055706;28;20182;-61
2021/03/21 12:31:12;;;;;;;22.63;5.03;;;;;;;;;;5057293;28;20252;-62
2021/03/21 12:33:40;;;;;;;16.75;4.95;;;;;;;;;;5061816;28;20273;-61
2021/03/21 12:36:12;;;;;;;20.77;5.68;;;;;;;;;;5059005;28;20669;-62
2021/03/21 12:38:41;;;;;;;21.90;7.68;;;;;;;;;;5058459;28;20275;-62
2021/03/21 12:41:22;;;;;;;23.77;5.95;;;;;;;;;;5057569;28;20205;-61
2021/03/21 12:44:04;;;;;;;18.75;4.47;;;;;;;;;;5057002;28;20230;-61
2021/03/21 12:46:41;;;;;;;16.10;4.90;;;;;;;;;;5056963;28;20249;-61
2021/03/21 12:49:12;;;;;;;20.83;5.00;;;;;;;;;;5057217;28;20294;-62
2021/03/21 12:51:39;;;;;;;16.00;5.22;;;;;;;;;;5056741;28;20562;-61
2021/03/21 12:54:06;;;;;;;24.20;4.95;;;;;;;;;;5056486;28;20232;-61
2021/03/21 12:56:33;;;;;;;27.13;4.75;;;;;;;;;;5056457;28;20201;-62
2021/03/21 12:58:59;;;;;;;22.85;5.70;;;;;;;;;;5057032;28;20700;-61
2021/03/21 13:01:26;;;;;;;10.10;4.43;;;;;;;;;;5057455;28;20208;-60
2021/03/21 13:03:53;;;;;;;12.30;4.03;;;;;;;;;;5056778;28;20276;-60
2021/03/21 13:06:21;;;;;;;16.27;5.35;;;;;;;;;;5056408;28;20678;-59
2021/03/21 13:08:47;;;;;;;23.42;7.07;;;;;;;;;;5056666;28;20243;-59
2021/03/21 13:11:14;;;;;;;17.80;5.85;;;;;;;;;;5057808;28;20201;-60
2021/03/21 13:13:41;;;;;;;19.95;6.18;;;;;;;;;;5057295;28;20229;-61
2021/03/21 13:16:09;;;;;;;18.83;5.95;;;;;;;;;;5058946;28;20201;-60
2021/03/21 13:18:36;;;;;;;18.55;5.72;;;;;;;;;;5061595;28;20202;-60
2021/03/21 13:21:03;;;;;;;20.17;6.50;;;;;;;;;;5061564;28;20202;-62
2021/03/21 13:23:31;;;;;;;14.93;5.57;;;;;;;;;;5062643;28;20201;-60
2021/03/21 13:25:57;;;;;;;15.88;5.07;;;;;;;;;;5062794;28;20202;-60
2021/03/21 13:28:24;;;;;;;15.80;5.95;;;;;;;;;;5061370;28;20280;-60
2021/03/21 13:30:52;;;;;;;17.98;5.20;;;;;;;;;;5061193;28;20208;-61
2021/03/21 13:33:20;;;;;;;12.82;4.70;;;;;;;;;;5060390;28;20193;-61
2021/03/21 13:35:47;;;;;;;17.15;6.53;;;;;;;;;;5060257;28;20284;-61
2021/03/21 13:38:14;;;;;;;16.58;5.78;;;;;;;;;;5057888;28;20201;-60
2021/03/21 13:40:42;;;;;;;15.15;5.85;;;;;;;;;;5058170;28;20205;-62
2021/03/21 13:43:10;;;;;;;14.38;5.45;;;;;;;;;;5059478;28;20198;-61
2021/03/21 13:45:37;;;;;;;18.60;5.93;;;;;;;;;;5058798;28;20222;-61
2021/03/21 13:48:05;;;;;;;23.27;5.82;;;;;;;;;;5058859;28;20214;-62
2021/03/21 13:50:32;;;;;;;14.00;5.60;;;;;;;;;;5058906;28;20210;-61
2021/03/21 13:52:59;;;;;;;18.48;4.95;;;;;;;;;;5060378;28;20213;-63
2021/03/21 13:55:28;;;;;;;21.75;4.38;;;;;;;;;;5066175;28;20229;-61
2021/03/21 13:57:56;;;;;;;20.13;5.53;;;;;;;;;;5057933;28;20197;-61
2021/03/21 14:00:23;;;;;;;25.40;6.60;;;;;;;;;;5056494;28;20206;-60
2021/03/21 14:02:50;;;;;;;11.88;4.60;;;;;;;;;;5055814;28;20213;-61
2021/03/21 14:05:18;;;;;;;15.40;5.28;;;;;;;;;;5056177;28;20313;-61
2021/03/21 14:07:45;;;;;;;19.27;5.15;;;;;;;;;;5056223;28;20225;-61
2021/03/21 14:10:12;;;;;;;20.05;6.43;;;;;;;;;;5055445;28;20747;-60
2021/03/21 14:12:40;;;;;;;25.20;6.22;;;;;;;;;;5055411;28;20201;-60
2021/03/21 14:15:09;;;;;;;20.13;4.85;;;;;;;;;;5055737;28;20316;-62
2021/03/21 14:17:35;;;;;;;14.95;5.05;;;;;;;;;;5055771;28;20209;-59
2021/03/21 14:20:02;;;;;;;14.77;4.75;;;;;;;;;;5055834;28;20674;-59
2021/03/21 14:22:29;;;;;;;14.10;4.97;;;;;;;;;;5055139;28;20212;-59
2021/03/21 14:24:56;;;;;;;13.50;4.97;;;;;;;;;;5054817;28;20316;-60
2021/03/21 14:27:23;;;;;;;16.95;4.78;;;;;;;;;;5055110;28;20222;-60
2021/03/21 14:29:50;;;;;;;12.02;4.85;;;;;;;;;;5055270;28;20612;-60
2021/03/21 14:32:17;;;;;;;14.27;5.72;;;;;;;;;;5055223;28;20208;-61
2021/03/21 14:34:44;;;;;;;11.60;5.03;;;;;;;;;;5055242;28;20267;-60
2021/03/21 14:37:11;;;;;;;13.25;3.95;;;;;;;;;;5055206;28;20224;-60
2021/03/21 14:39:38;;;;;;;13.93;5.05;;;;;;;;;;5054927;28;20278;-59
2021/03/21 14:42:05;;;;;;;18.58;4.60;;;;;;;;;;5054504;28;20217;-60
2021/03/21 14:44:32;;;;;;;13.77;4.45;;;;;;;;;;5054718;28;20221;-59
2021/03/21 14:46:59;;;;;;;20.42;5.22;;;;;;;;;;5054929;28;20221;-60
2021/03/21 14:49:26;;;;;;;13.35;4.95;;;;;;;;;;5054474;28;20224;-59
2021/03/21 14:51:53;;;;;;;14.38;4.05;;;;;;;;;;5054197;28;20206;-58
2021/03/21 14:54:20;;;;;;;16.02;4.88;;;;;;;;;;5054323;28;20272;-59
2021/03/21 14:56:46;;;;;;;11.25;4.53;;;;;;;;;;5054363;28;20217;-59
2021/03/21 14:59:13;;;;;;;17.20;5.18;;;;;;;;;;5054613;28;20209;-59
2021/03/21 15:01:40;;;;;;;13.27;5.47;;;;;;;;;;5054628;28;20205;-60
2021/03/21 15:04:07;;;;;;;18.98;5.32;;;;;;;;;;5054550;28;20230;-58